Worms, Nebraska
Current Conditions -  °F | °C
As of 7:15 AM on Sunday 23 Nov 2014 (Local Time) from KAUH Reporting Station
Clear Clear  
Wind Chill: 39°   Ceiling: Unl
Heat Index: 46°   Visibility: 10mi
Dew Point: 43°   Wind: 15mph
Humidity: 90%   Direction: 330°NNW
Pressure: 29.5"   Gusts: NA
Location:  41.091°N, 98.3628°W
Report Text: KAUH 231315Z AUTO 33013KT 10SM CLR 08/06 A2950 RMK AO2 T00750059
Loading
Personal Weather Stations






























Interactive Weather Map New forecast layout! Learn more

10-Day Weather Forecast

Advertisements
Track Severe Weather on mobile